Time;durP1;ratioP1;P1;durP2;ratioP2;P2;SDS_P1;SDS_P2;PMS_P1;PMS_P2;Temp;Humidity;BMP_temperature;BMP_pressure;BME280_temperature;BME280_humidity;BME280_pressure;Samples;Min_cycle;Max_cycle;Signal;HPM_P1;HPM_P2
2022/01/26 00:06:41;;;;;;;7.40;6.70;;;18.30;39.10;;;;;;5045200;28;20233;-65
2022/01/26 00:09:07;;;;;;;6.77;6.17;;;18.30;39.10;;;;;;5038130;28;20445;-65
2022/01/26 00:11:34;;;;;;;6.50;5.90;;;18.30;39.20;;;;;;5039534;28;20510;-65
2022/01/26 00:14:02;;;;;;;6.83;6.30;;;18.30;39.20;;;;;;5038488;28;20506;-65
2022/01/26 00:16:38;;;;;;;6.47;5.63;;;18.30;39.10;;;;;;5041248;28;20465;-65
2022/01/26 00:19:07;;;;;;;9.23;6.97;;;18.30;39.10;;;;;;5042742;28;20416;-65
2022/01/26 00:21:42;;;;;;;6.67;6.00;;;18.30;39.10;;;;;;5040450;28;20427;-65
2022/01/26 00:27:00;;;;;;;6.57;5.63;;;18.30;39.10;;;;;;5038637;28;20766;-65
2022/01/26 00:29:25;;;;;;;6.30;5.80;;;18.30;39.10;;;;;;5039380;28;20303;-65
2022/01/26 00:40:13;;;;;;;7.90;7.20;;;18.30;39.10;;;;;;5039091;28;20934;-65
2022/01/26 00:42:41;;;;;;;7.40;6.60;;;18.30;39.20;;;;;;5036906;28;20463;-65
2022/01/26 00:45:08;;;;;;;6.17;5.67;;;18.30;39.20;;;;;;5043850;28;20442;-65
2022/01/26 00:47:34;;;;;;;6.27;5.77;;;18.30;39.10;;;;;;5035336;28;20399;-66
2022/01/26 00:50:06;;;;;;;6.20;5.70;;;18.30;39.10;;;;;;5041317;28;20420;-65
2022/01/26 00:52:43;;;;;;;6.63;6.03;;;18.30;39.10;;;;;;5036096;28;20294;-65
2022/01/26 00:55:14;;;;;;;6.73;6.23;;;18.30;39.10;;;;;;5052580;28;20746;-67
2022/01/26 00:57:39;;;;;;;7.20;6.50;;;18.30;39.20;;;;;;5040611;28;20415;-66
2022/01/26 01:00:11;;;;;;;7.73;6.30;;;18.30;39.10;;;;;;5045081;28;20430;-66
2022/01/26 01:02:37;;;;;;;6.30;5.80;;;18.30;39.10;;;;;;5042846;28;20230;-66
2022/01/26 01:05:12;;;;;;;6.33;5.73;;;18.30;39.20;;;;;;5041574;28;21095;-66
2022/01/26 01:07:40;;;;;;;6.87;6.23;;;18.30;39.20;;;;;;5041507;28;20218;-66
2022/01/26 01:10:06;;;;;;;6.50;5.70;;;18.20;39.80;;;;;;5043584;28;20422;-66
2022/01/26 01:12:38;;;;;;;7.60;6.80;;;18.30;39.20;;;;;;5044579;28;20463;-66
2022/01/26 01:15:04;;;;;;;9.83;7.17;;;18.20;39.10;;;;;;5045181;28;20418;-66
2022/01/26 01:17:37;;;;;;;7.23;6.50;;;18.20;39.10;;;;;;5042304;28;20474;-65
2022/01/26 01:20:27;;;;;;;6.90;6.30;;;18.30;39.10;;;;;;5045950;28;20406;-66
2022/01/26 01:30:41;;;;;;;6.97;6.27;;;18.30;39.20;;;;;;5041964;28;20463;-65
2022/01/26 01:33:09;;;;;;;6.60;6.00;;;18.20;39.10;;;;;;5045404;28;20464;-65
2022/01/26 01:35:39;;;;;;;6.63;6.03;;;18.20;39.10;;;;;;5040863;28;20566;-65
2022/01/26 01:38:15;;;;;;;7.83;6.93;;;18.20;39.10;;;;;;5044439;28;20505;-65
2022/01/26 01:40:44;;;;;;;6.70;6.03;;;18.20;39.10;;;;;;5041814;28;20430;-65
2022/01/26 01:43:10;;;;;;;6.93;6.40;;;18.20;39.10;;;;;;5044691;28;20753;-65
2022/01/26 01:45:43;;;;;;;7.30;6.60;;;18.20;39.10;;;;;;5040107;28;20430;-65
2022/01/26 01:48:11;;;;;;;7.80;7.00;;;18.20;39.10;;;;;;5041761;28;20421;-65
2022/01/26 01:50:41;;;;;;;7.40;6.70;;;18.20;39.10;;;;;;5043596;28;20537;-65
2022/01/26 01:53:10;;;;;;;8.17;7.10;;;18.20;39.10;;;;;;5041750;28;20937;-65
2022/01/26 01:55:47;;;;;;;8.33;7.53;;;18.20;39.10;;;;;;5041052;28;20444;-65
2022/01/26 01:58:13;;;;;;;7.40;6.70;;;18.20;39.10;;;;;;5043638;28;20417;-67
2022/01/26 02:00:39;;;;;;;10.03;7.47;;;18.20;39.10;;;;;;5042910;28;20778;-70
2022/01/26 02:03:05;;;;;;;8.77;7.87;;;18.20;39.10;;;;;;5047680;28;20234;-67
2022/01/26 02:05:31;;;;;;;8.50;7.63;;;18.20;39.10;;;;;;5070518;28;20357;-66
2022/01/26 02:07:56;;;;;;;9.23;8.00;;;18.20;39.20;;;;;;5041127;28;20217;-66
2022/01/26 02:10:24;;;;;;;8.03;7.23;;;18.20;39.10;;;;;;5047993;28;20717;-66
2022/01/26 02:12:58;;;;;;;9.30;7.80;;;18.20;39.10;;;;;;5043561;28;20223;-66
2022/01/26 02:15:30;;;;;;;8.47;7.30;;;18.20;39.10;;;;;;5043214;28;20418;-66
2022/01/26 02:21:05;;;;;;;10.37;8.53;;;18.20;39.10;;;;;;5040919;28;20938;-66
2022/01/26 02:54:12;;;;;;;12.03;8.87;;;18.20;39.00;;;;;;5040125;28;20476;-65
2022/01/26 03:04:10;;;;;;;9.03;8.13;;;18.20;39.10;;;;;;5041575;28;20837;-65
2022/01/26 03:06:50;;;;;;;10.07;8.33;;;18.20;39.00;;;;;;5041361;28;20226;-65
2022/01/26 03:09:21;;;;;;;10.33;8.63;;;18.20;39.10;;;;;;5042061;28;20951;-65
2022/01/26 03:11:48;;;;;;;9.83;8.30;;;18.20;39.10;;;;;;5038481;28;20563;-65
2022/01/26 03:15:08;;;;;;;10.10;8.03;;;18.20;39.00;;;;;;5039410;28;20920;-66
2022/01/26 03:17:09;;;;;;;9.67;7.97;;;18.20;39.00;;;;;;5037574;28;20482;-65
2022/01/26 03:19:43;;;;;;;10.47;8.70;;;18.20;39.00;;;;;;5038426;28;20413;-65
2022/01/26 03:30:28;;;;;;;10.30;9.20;;;18.20;39.00;;;;;;5041619;28;20453;-65
2022/01/26 03:33:10;;;;;;;11.10;8.50;;;18.20;39.00;;;;;;5042201;28;20487;-65
2022/01/26 03:35:44;;;;;;;11.00;8.43;;;18.20;39.00;;;;;;5041259;28;20421;-65
2022/01/26 03:38:18;;;;;;;9.70;8.37;;;18.20;39.00;;;;;;5041025;28;20435;-65
2022/01/26 03:40:45;;;;;;;11.40;8.57;;;18.20;39.00;;;;;;5036614;28;20559;-65
2022/01/26 03:43:11;;;;;;;10.30;8.50;;;18.20;39.00;;;;;;5040665;28;20436;-65
2022/01/26 03:45:36;;;;;;;9.87;8.30;;;18.20;39.00;;;;;;5043622;28;20478;-65
2022/01/26 03:48:02;;;;;;;9.10;7.60;;;18.20;39.00;;;;;;5039208;28;20227;-65
2022/01/26 03:50:28;;;;;;;11.57;8.37;;;18.20;39.00;;;;;;5041280;28;20880;-65
2022/01/26 03:52:53;;;;;;;10.27;8.60;;;18.20;39.00;;;;;;5040888;28;20618;-65
2022/01/26 03:55:19;;;;;;;9.10;7.90;;;18.20;39.00;;;;;;5038130;28;20297;-65
2022/01/26 03:57:45;;;;;;;10.43;8.57;;;18.20;39.00;;;;;;5039729;28;20243;-65
2022/01/26 04:00:11;;;;;;;9.53;8.57;;;18.20;39.00;;;;;;5040759;28;20226;-65
2022/01/26 04:02:37;;;;;;;10.60;8.27;;;18.20;39.00;;;;;;5039081;28;20364;-65
2022/01/26 04:05:06;;;;;;;11.53;8.73;;;18.20;39.00;;;;;;5042635;28;20508;-65
2022/01/26 04:07:32;;;;;;;9.63;8.60;;;18.20;39.00;;;;;;5039965;28;20265;-65
2022/01/26 04:10:07;;;;;;;11.53;9.17;;;18.20;39.00;;;;;;5040162;28;20921;-65
2022/01/26 04:12:35;;;;;;;8.33;7.50;;;18.20;39.00;;;;;;5042410;28;20283;-65
2022/01/26 04:15:09;;;;;;;13.67;7.60;;;18.20;39.00;;;;;;5038694;28;20455;-65
2022/01/26 04:17:34;;;;;;;12.83;8.83;;;18.20;39.00;;;;;;5067900;28;20806;-65
2022/01/26 04:20:00;;;;;;;8.47;7.57;;;18.20;38.90;;;;;;5037520;28;20465;-65
2022/01/26 04:22:34;;;;;;;12.93;8.40;;;18.20;38.90;;;;;;5039961;28;20223;-65
2022/01/26 04:25:01;;;;;;;8.27;7.47;;;18.20;38.90;;;;;;5037415;28;20284;-65
2022/01/26 04:27:36;;;;;;;8.77;7.90;;;18.20;39.00;;;;;;5041879;28;21207;-65
2022/01/26 04:30:04;;;;;;;8.70;7.77;;;18.20;38.90;;;;;;5037277;28;20434;-65
2022/01/26 04:32:29;;;;;;;9.13;8.13;;;18.20;38.90;;;;;;5036717;28;21168;-65
2022/01/26 04:34:56;;;;;;;8.23;7.23;;;18.20;39.00;;;;;;5039941;28;20439;-65
2022/01/26 04:39:57;;;;;;;9.30;8.20;;;18.20;39.00;;;;;;5038962;28;20979;-65
2022/01/26 04:42:51;;;;;;;9.60;7.97;;;18.20;38.90;;;;;;5040410;28;20255;-65
2022/01/26 04:45:12;;;;;;;8.60;7.73;;;18.20;38.90;;;;;;5021620;28;20998;-65
2022/01/26 04:47:39;;;;;;;8.87;7.50;;;18.20;38.90;;;;;;5046314;28;20455;-65
2022/01/26 04:50:08;;;;;;;9.03;8.10;;;18.20;38.90;;;;;;5043752;28;20773;-65
2022/01/26 04:52:33;;;;;;;9.57;8.00;;;18.20;38.90;;;;;;5039375;28;20811;-65
2022/01/26 04:54:59;;;;;;;8.63;7.23;;;18.20;38.90;;;;;;5039232;28;20433;-65
2022/01/26 04:57:25;;;;;;;9.50;8.23;;;18.20;38.90;;;;;;5037542;28;20573;-65
2022/01/26 04:59:50;;;;;;;10.87;8.70;;;18.20;38.90;;;;;;5044277;28;20222;-65
2022/01/26 05:02:16;;;;;;;7.30;6.60;;;18.20;38.90;;;;;;5040975;28;20215;-65
2022/01/26 05:04:41;;;;;;;8.60;7.40;;;18.20;38.90;;;;;;5038705;28;20736;-65
2022/01/26 05:07:07;;;;;;;8.87;7.73;;;18.20;38.80;;;;;;5039384;28;20567;-65
2022/01/26 05:09:33;;;;;;;9.80;8.67;;;18.20;38.80;;;;;;5037380;28;20558;-66
2022/01/26 05:12:01;;;;;;;9.07;7.60;;;18.20;38.80;;;;;;5041809;28;20214;-65
2022/01/26 05:14:26;;;;;;;8.23;7.40;;;18.20;38.80;;;;;;5039240;28;20244;-66
2022/01/26 05:16:52;;;;;;;7.90;7.17;;;18.20;38.80;;;;;;5045135;28;20514;-67
2022/01/26 05:19:18;;;;;;;7.50;6.80;;;18.20;38.70;;;;;;5043619;28;20337;-67
2022/01/26 05:21:43;;;;;;;7.73;7.03;;;18.30;38.80;;;;;;5041489;28;20223;-67
2022/01/26 05:24:10;;;;;;;8.60;7.60;;;18.30;38.80;;;;;;5040462;28;20297;-66
2022/01/26 05:26:37;;;;;;;8.40;7.30;;;18.30;38.80;;;;;;5039362;28;20290;-66
2022/01/26 05:29:03;;;;;;;8.67;7.77;;;18.30;38.70;;;;;;5038707;28;20456;-66
2022/01/26 05:31:28;;;;;;;9.67;7.87;;;18.30;38.70;;;;;;5044587;28;20483;-66
2022/01/26 05:33:54;;;;;;;10.00;8.07;;;18.30;38.60;;;;;;5038138;28;20707;-66
2022/01/26 05:36:20;;;;;;;9.03;7.40;;;18.30;38.70;;;;;;5036961;28;20226;-66
2022/01/26 05:38:46;;;;;;;8.97;8.03;;;18.30;38.60;;;;;;5032163;28;20251;-65
2022/01/26 05:41:11;;;;;;;10.47;7.87;;;18.30;38.60;;;;;;5043005;28;20226;-66
2022/01/26 05:43:37;;;;;;;8.87;7.50;;;18.30;38.60;;;;;;5074851;28;20721;-65
2022/01/26 05:46:20;;;;;;;8.80;7.40;;;18.30;38.60;;;;;;5039744;28;20289;-68
2022/01/26 05:48:46;;;;;;;7.87;7.07;;;18.30;38.60;;;;;;5044434;28;20258;-66
2022/01/26 05:51:15;;;;;;;8.83;7.87;;;18.40;38.70;;;;;;5044450;28;20453;-67
2022/01/26 05:53:41;;;;;;;8.97;7.90;;;18.40;38.70;;;;;;5036489;28;20469;-65
2022/01/26 05:56:07;;;;;;;9.20;8.07;;;18.40;38.70;;;;;;5041722;28;20948;-66
2022/01/26 05:58:33;;;;;;;10.97;8.80;;;18.40;38.60;;;;;;5043460;28;20442;-66
2022/01/26 06:01:00;;;;;;;9.77;8.17;;;18.40;38.60;;;;;;5046363;28;20441;-65
2022/01/26 06:03:27;;;;;;;10.10;7.43;;;18.40;38.60;;;;;;5045288;28;20230;-65
2022/01/26 06:05:54;;;;;;;10.07;8.57;;;18.40;38.60;;;;;;5043606;28;20426;-65
2022/01/26 06:08:21;;;;;;;8.00;7.20;;;18.40;38.60;;;;;;5035381;28;20463;-65
2022/01/26 06:10:47;;;;;;;12.80;8.33;;;18.40;38.60;;;;;;5042237;28;20453;-65
2022/01/26 06:13:12;;;;;;;9.67;8.20;;;18.40;38.60;;;;;;5042198;28;20486;-65
2022/01/26 06:15:38;;;;;;;9.50;8.30;;;18.40;38.60;;;;;;5044334;28;20475;-64
2022/01/26 06:18:04;;;;;;;11.47;8.70;;;18.40;38.50;;;;;;5043289;28;20229;-64
2022/01/26 06:20:29;;;;;;;11.63;8.67;;;18.40;38.50;;;;;;5043387;28;20226;-65
2022/01/26 06:22:55;;;;;;;11.57;8.13;;;18.40;38.60;;;;;;5043806;28;20210;-65
2022/01/26 06:25:20;;;;;;;10.70;8.43;;;18.40;38.50;;;;;;5039114;28;20233;-65
2022/01/26 06:27:48;;;;;;;10.63;8.90;;;18.40;38.60;;;;;;5041901;28;20227;-65
2022/01/26 06:30:13;;;;;;;10.30;8.40;;;18.40;38.60;;;;;;5046052;28;20667;-65
2022/01/26 06:32:39;;;;;;;11.23;8.70;;;18.40;38.60;;;;;;5040022;28;20464;-65
2022/01/26 06:35:07;;;;;;;10.33;8.10;;;18.40;38.60;;;;;;5037373;28;20613;-67
2022/01/26 06:37:32;;;;;;;11.27;8.47;;;18.40;38.60;;;;;;5044708;28;20243;-67
2022/01/26 06:39:58;;;;;;;11.37;8.27;;;18.40;38.60;;;;;;5046962;28;20456;-69
2022/01/26 06:42:28;;;;;;;11.57;9.00;;;18.40;38.50;;;;;;5041872;28;20242;-67
2022/01/26 06:45:12;;;;;;;9.80;8.80;;;18.40;38.50;;;;;;5036674;28;20297;-66
2022/01/26 06:47:58;;;;;;;10.63;8.80;;;18.40;38.60;;;;;;5071093;28;20437;-70
2022/01/26 06:50:23;;;;;;;10.30;8.67;;;18.40;38.50;;;;;;5025965;28;20445;-68
2022/01/26 06:52:49;;;;;;;12.13;8.50;;;18.40;38.50;;;;;;5024170;28;20937;-66
2022/01/26 06:55:17;;;;;;;12.10;9.37;;;18.40;38.50;;;;;;5021378;28;20564;-66
2022/01/26 06:57:42;;;;;;;10.73;8.10;;;18.40;38.40;;;;;;5029734;28;20219;-66
2022/01/26 07:00:10;;;;;;;14.17;9.30;;;18.40;38.50;;;;;;5019787;28;20465;-66
2022/01/26 07:02:39;;;;;;;13.13;9.37;;;18.50;38.50;;;;;;5040151;28;20305;-65
2022/01/26 07:05:06;;;;;;;13.80;9.57;;;18.40;38.50;;;;;;5041383;28;20501;-66
2022/01/26 07:07:32;;;;;;;12.43;9.60;;;18.40;38.40;;;;;;5043235;28;21006;-65
2022/01/26 07:09:58;;;;;;;10.97;9.03;;;18.40;38.50;;;;;;5043404;28;20456;-65
2022/01/26 07:12:24;;;;;;;10.37;8.90;;;18.40;38.50;;;;;;5041503;28;20431;-65
2022/01/26 07:22:55;;;;;;;12.47;9.20;;;18.50;38.60;;;;;;5039280;28;20493;-65
2022/01/26 07:25:21;;;;;;;13.73;9.90;;;18.40;38.50;;;;;;5038780;28;20435;-64
2022/01/26 07:27:47;;;;;;;14.43;9.77;;;18.40;38.50;;;;;;5046395;28;20353;-66
2022/01/26 07:30:12;;;;;;;12.63;9.07;;;18.40;38.50;;;;;;5030694;28;20593;-65
2022/01/26 07:32:38;;;;;;;11.27;9.30;;;18.40;38.50;;;;;;5039099;28;20235;-66
2022/01/26 07:35:06;;;;;;;15.47;10.30;;;18.40;38.50;;;;;;5039582;28;20226;-65
2022/01/26 07:37:32;;;;;;;13.77;10.30;;;18.40;38.50;;;;;;5043081;28;20612;-65
2022/01/26 07:40:07;;;;;;;17.00;10.50;;;18.50;38.50;;;;;;5041067;28;20460;-67
2022/01/26 07:42:34;;;;;;;13.23;9.67;;;18.40;38.50;;;;;;5039975;28;21328;-66
2022/01/26 07:45:00;;;;;;;13.53;10.17;;;18.40;38.50;;;;;;5040441;28;20468;-66
2022/01/26 07:47:27;;;;;;;11.67;9.47;;;18.50;38.50;;;;;;5043722;28;20466;-66
2022/01/26 07:49:55;;;;;;;12.90;9.73;;;18.50;38.50;;;;;;5042455;28;20776;-65
2022/01/26 07:52:21;;;;;;;16.13;10.33;;;18.50;38.50;;;;;;5039008;28;20456;-66
2022/01/26 07:54:50;;;;;;;14.50;10.30;;;18.50;38.50;;;;;;5040516;28;20448;-65
2022/01/26 07:57:18;;;;;;;12.97;9.70;;;18.50;38.50;;;;;;5045722;28;20215;-64
2022/01/26 07:59:43;;;;;;;16.60;11.20;;;18.40;38.50;;;;;;5040380;28;20441;-67
2022/01/26 08:02:09;;;;;;;14.30;10.97;;;18.50;38.50;;;;;;5043320;28;22217;-65
2022/01/26 08:04:35;;;;;;;13.83;10.10;;;18.50;38.50;;;;;;5043450;28;20281;-65
2022/01/26 08:07:00;;;;;;;13.23;9.87;;;18.50;38.60;;;;;;5041457;28;20221;-65
2022/01/26 08:09:26;;;;;;;13.10;9.70;;;18.50;38.50;;;;;;5046786;28;20222;-67
2022/01/26 08:11:52;;;;;;;16.33;10.50;;;18.50;38.50;;;;;;5039781;28;20222;-65
2022/01/26 08:14:18;;;;;;;15.73;11.20;;;18.50;38.50;;;;;;5044690;28;20505;-67
2022/01/26 08:16:44;;;;;;;14.73;10.50;;;18.50;38.50;;;;;;5045537;28;20277;-68
2022/01/26 08:19:12;;;;;;;13.93;9.90;;;18.50;38.50;;;;;;5038341;28;21017;-69
2022/01/26 08:21:38;;;;;;;15.60;10.23;;;18.50;38.50;;;;;;5039280;28;20471;-68
2022/01/26 08:24:12;;;;;;;12.07;9.70;;;18.50;39.20;;;;;;5043885;28;20418;-67
2022/01/26 08:26:42;;;;;;;15.40;11.20;;;18.50;38.50;;;;;;5037669;28;20229;-67
2022/01/26 08:29:15;;;;;;;17.80;9.93;;;18.50;38.40;;;;;;5041667;28;20459;-68
2022/01/26 08:31:40;;;;;;;14.23;9.80;;;18.50;38.40;;;;;;5042222;28;20418;-67
2022/01/26 08:34:06;;;;;;;14.80;9.90;;;18.50;38.40;;;;;;5046484;28;20430;-67
2022/01/26 08:36:31;;;;;;;16.53;9.93;;;18.50;38.40;;;;;;5039731;28;20227;-68
2022/01/26 08:38:57;;;;;;;12.00;10.33;;;18.50;38.40;;;;;;5042593;28;20230;-68
2022/01/26 08:41:23;;;;;;;16.67;10.87;;;18.50;38.40;;;;;;5040855;28;20221;-67
2022/01/26 08:43:48;;;;;;;17.70;10.67;;;18.50;38.40;;;;;;5039355;28;20230;-67
2022/01/26 08:46:17;;;;;;;15.63;11.10;;;18.50;38.40;;;;;;5042400;28;20218;-67
2022/01/26 08:48:43;;;;;;;16.10;11.27;;;18.50;38.40;;;;;;5038946;28;20257;-67
2022/01/26 08:51:08;;;;;;;13.13;9.83;;;18.50;38.40;;;;;;5048829;28;20434;-67
2022/01/26 08:53:34;;;;;;;18.37;12.00;;;18.50;38.40;;;;;;5039182;28;20562;-67
2022/01/26 08:55:59;;;;;;;11.93;9.50;;;18.50;38.40;;;;;;5040776;28;20230;-67
2022/01/26 08:58:25;;;;;;;15.07;10.73;;;18.50;38.30;;;;;;5039255;28;20210;-66
2022/01/26 09:00:50;;;;;;;13.00;10.50;;;18.50;38.30;;;;;;5036010;28;20241;-67
2022/01/26 09:03:16;;;;;;;14.10;10.40;;;18.50;38.40;;;;;;5042477;28;20222;-67
2022/01/26 09:05:42;;;;;;;16.20;11.13;;;18.50;38.40;;;;;;5040256;28;20285;-66
2022/01/26 09:08:08;;;;;;;14.63;11.40;;;18.50;38.30;;;;;;5045458;28;20227;-67
2022/01/26 09:10:34;;;;;;;14.07;10.90;;;18.50;38.30;;;;;;5043911;28;20241;-66
2022/01/26 09:13:01;;;;;;;14.23;10.80;;;18.50;38.40;;;;;;5043729;28;20269;-66
2022/01/26 09:15:29;;;;;;;15.53;10.60;;;18.50;38.40;;;;;;5044756;28;20907;-67
2022/01/26 09:17:56;;;;;;;15.87;11.27;;;18.50;38.30;;;;;;5042700;28;20434;-66
2022/01/26 09:20:22;;;;;;;21.37;10.83;;;18.50;38.30;;;;;;5036006;28;20447;-69
2022/01/26 09:22:48;;;;;;;14.43;10.50;;;18.50;38.30;;;;;;5040085;28;20419;-68
2022/01/26 09:25:13;;;;;;;16.93;10.73;;;18.50;38.30;;;;;;5047531;28;20226;-69
2022/01/26 09:27:39;;;;;;;15.33;10.70;;;18.50;38.30;;;;;;5049054;28;20222;-67
2022/01/26 09:30:06;;;;;;;14.50;11.73;;;18.50;38.30;;;;;;5042798;28;20679;-66
2022/01/26 09:32:31;;;;;;;15.00;11.60;;;18.50;38.40;;;;;;5044010;28;20210;-66
2022/01/26 09:34:57;;;;;;;14.20;9.63;;;18.50;38.30;;;;;;5046098;28;20997;-66
2022/01/26 09:37:22;;;;;;;14.33;10.43;;;18.50;38.30;;;;;;5048336;28;20218;-66
2022/01/26 09:39:48;;;;;;;15.33;11.03;;;18.50;38.30;;;;;;5042582;28;20311;-66
2022/01/26 09:42:15;;;;;;;15.40;10.80;;;18.50;38.40;;;;;;5041854;28;20245;-66
2022/01/26 09:44:42;;;;;;;14.67;9.97;;;18.50;38.30;;;;;;5048575;28;20463;-66
2022/01/26 09:47:09;;;;;;;13.77;10.37;;;18.50;38.30;;;;;;5044055;28;20438;-66
2022/01/26 09:49:35;;;;;;;14.40;10.10;;;18.50;38.30;;;;;;5044898;28;20440;-65
2022/01/26 09:52:21;;;;;;;15.20;10.70;;;18.50;38.40;;;;;;5042949;28;20468;-66
2022/01/26 09:54:47;;;;;;;13.33;10.17;;;18.50;38.40;;;;;;5045097;28;20433;-68
2022/01/26 09:57:13;;;;;;;16.10;9.83;;;18.50;38.40;;;;;;5040458;28;20418;-68
2022/01/26 09:59:38;;;;;;;12.10;9.60;;;18.50;38.40;;;;;;5042691;28;20452;-67
2022/01/26 10:02:04;;;;;;;14.60;10.03;;;18.50;38.40;;;;;;5041962;28;20209;-67
2022/01/26 10:04:38;;;;;;;16.33;11.40;;;18.50;38.40;;;;;;5040092;28;20306;-66
2022/01/26 10:10:04;;;;;;;15.13;10.13;;;18.50;38.40;;;;;;5046704;28;20801;-66
2022/01/26 10:18:16;;;;;;;12.60;10.17;;;18.50;38.40;;;;;;5046389;28;20430;-65
2022/01/26 10:20:50;;;;;;;12.50;9.50;;;18.50;38.40;;;;;;5046141;28;20461;-65
2022/01/26 10:23:34;;;;;;;14.00;9.73;;;18.50;38.50;;;;;;5046624;28;20513;-65
2022/01/26 10:26:04;;;;;;;12.53;10.27;;;18.50;38.40;;;;;;5050548;28;20473;-65
2022/01/26 10:28:47;;;;;;;12.90;9.53;;;18.50;38.50;;;;;;5041069;28;20456;-66
2022/01/26 10:31:18;;;;;;;13.33;10.07;;;18.40;38.30;;;;;;5039731;28;21007;-67
2022/01/26 10:33:57;;;;;;;15.83;10.80;;;18.40;38.40;;;;;;5041759;28;20911;-68
2022/01/26 10:36:23;;;;;;;13.60;10.03;;;18.40;38.40;;;;;;5040124;28;20766;-67
2022/01/26 10:39:07;;;;;;;13.23;10.10;;;18.50;38.50;;;;;;5042636;28;20460;-67
2022/01/26 10:41:38;;;;;;;15.90;10.00;;;18.40;38.40;;;;;;5044967;28;20455;-66
2022/01/26 10:44:04;;;;;;;15.20;11.10;;;18.40;38.50;;;;;;5037620;28;20941;-66
2022/01/26 10:46:35;;;;;;;11.80;8.73;;;18.40;38.40;;;;;;5041210;28;20445;-66
2022/01/26 10:49:43;;;;;;;15.50;9.90;;;18.50;38.50;;;;;;5042071;28;20439;-66
2022/01/26 10:52:54;;;;;;;13.70;9.67;;;18.40;38.40;;;;;;5045299;28;20435;-65
2022/01/26 10:55:07;;;;;;;12.23;9.33;;;18.40;38.50;;;;;;5043897;28;20449;-66
2022/01/26 10:57:34;;;;;;;13.47;10.57;;;18.40;38.50;;;;;;5037780;28;20462;-66
2022/01/26 11:00:02;;;;;;;15.20;10.83;;;18.40;38.50;;;;;;5040033;28;20935;-66
2022/01/26 11:02:31;;;;;;;15.07;11.33;;;18.40;38.50;;;;;;5037525;28;20423;-66
2022/01/26 11:04:56;;;;;;;13.87;9.93;;;18.40;38.50;;;;;;5046278;28;20507;-66
2022/01/26 11:07:36;;;;;;;14.80;9.73;;;18.40;38.60;;;;;;5043878;28;20499;-66
2022/01/26 11:10:07;;;;;;;14.37;10.50;;;18.40;38.50;;;;;;5041420;28;20206;-66
2022/01/26 11:12:37;;;;;;;13.23;9.53;;;18.40;38.50;;;;;;5039789;28;20406;-66
2022/01/26 11:15:09;;;;;;;11.13;8.47;;;18.40;38.50;;;;;;5040057;28;20531;-66
2022/01/26 11:17:43;;;;;;;11.57;8.90;;;18.40;38.60;;;;;;5045050;28;20445;-66
2022/01/26 11:20:33;;;;;;;14.10;9.80;;;18.40;38.50;;;;;;5071047;28;20839;-66
2022/01/26 11:23:02;;;;;;;14.60;9.53;;;18.40;38.50;;;;;;5039145;28;20450;-68
2022/01/26 11:25:30;;;;;;;12.50;8.97;;;18.40;38.50;;;;;;5043581;28;20943;-67
2022/01/26 11:27:57;;;;;;;13.03;9.30;;;18.40;38.60;;;;;;5039931;28;20494;-67
2022/01/26 11:30:31;;;;;;;11.77;8.83;;;18.40;38.60;;;;;;5040679;28;20436;-66
2022/01/26 11:33:00;;;;;;;11.37;9.30;;;18.40;38.60;;;;;;5041822;28;20485;-67
2022/01/26 11:35:31;;;;;;;15.43;9.80;;;18.40;38.60;;;;;;5041173;28;20460;-66
2022/01/26 11:38:27;;;;;;;11.33;8.50;;;18.40;38.60;;;;;;5039776;28;20490;-66
2022/01/26 11:46:25;;;;;;;11.60;8.27;;;18.40;38.60;;;;;;5036973;28;20446;-66
2022/01/26 11:49:08;;;;;;;12.30;8.83;;;18.40;38.70;;;;;;5041361;28;20448;-65
2022/01/26 11:51:40;;;;;;;14.37;9.40;;;18.40;38.60;;;;;;5036284;28;20221;-65
2022/01/26 11:54:13;;;;;;;11.90;8.63;;;18.40;38.60;;;;;;5040400;28;20875;-65
2022/01/26 11:56:39;;;;;;;10.63;8.23;;;18.40;38.60;;;;;;5037577;28;20453;-65
2022/01/26 11:59:15;;;;;;;12.57;9.13;;;18.40;38.60;;;;;;5024971;28;20494;-66
2022/01/26 12:01:42;;;;;;;13.27;9.60;;;18.40;38.60;;;;;;5020516;28;21449;-65
2022/01/26 12:04:15;;;;;;;12.53;9.10;;;18.40;38.60;;;;;;5024560;28;20419;-65
2022/01/26 12:06:46;;;;;;;10.97;8.77;;;18.30;38.50;;;;;;5023957;28;20463;-66
2022/01/26 12:09:12;;;;;;;11.70;8.63;;;18.40;38.60;;;;;;5032849;28;20443;-65
2022/01/26 12:11:38;;;;;;;11.60;9.70;;;18.40;38.60;;;;;;5038365;28;21459;-66
2022/01/26 12:14:07;;;;;;;12.13;8.60;;;18.40;38.60;;;;;;5038609;28;20236;-69
2022/01/26 12:16:37;;;;;;;11.60;8.60;;;18.40;38.60;;;;;;5057465;28;20440;-70
2022/01/26 12:35:55;;;;;;;12.27;8.80;;;18.50;38.30;;;;;;5047175;28;20930;-65
2022/01/26 12:43:50;;;;;;;10.97;7.87;;;18.50;38.10;;;;;;5043712;28;20410;-66
2022/01/26 12:46:27;;;;;;;13.13;8.50;;;18.50;38.20;;;;;;5039326;28;20491;-66
2022/01/26 12:48:56;;;;;;;8.37;6.80;;;18.50;38.20;;;;;;5042913;28;20430;-66
2022/01/26 12:51:22;;;;;;;9.10;7.23;;;18.50;38.20;;;;;;5039401;28;20459;-65
2022/01/26 12:53:56;;;;;;;8.50;7.47;;;18.50;38.30;;;;;;5037960;28;20867;-66
2022/01/26 12:56:25;;;;;;;9.07;7.90;;;18.50;38.30;;;;;;5053514;28;20461;-64
2022/01/26 12:59:03;;;;;;;9.10;7.03;;;18.50;38.30;;;;;;5043671;28;20428;-65
2022/01/26 13:01:29;;;;;;;8.10;7.03;;;18.50;38.30;;;;;;5051201;28;20447;-65
2022/01/26 13:03:58;;;;;;;10.37;8.10;;;18.50;38.30;;;;;;5043494;28;20442;-65
2022/01/26 13:06:31;;;;;;;10.70;8.10;;;18.50;38.30;;;;;;5042128;28;20222;-65
2022/01/26 13:08:59;;;;;;;7.17;6.43;;;18.50;38.40;;;;;;5047785;28;20454;-65
2022/01/26 13:11:27;;;;;;;10.50;7.60;;;18.50;38.30;;;;;;5040640;28;20411;-65
2022/01/26 13:14:15;;;;;;;8.87;7.90;;;18.50;38.40;;;;;;5049647;28;20456;-65
2022/01/26 13:16:46;;;;;;;7.63;6.80;;;18.50;38.40;;;;;;5027853;28;20453;-64
2022/01/26 13:19:52;;;;;;;7.87;7.07;;;18.50;38.40;;;;;;5021255;28;20951;-64
2022/01/26 13:44:04;;;;;;;8.57;6.37;;;18.50;38.50;;;;;;5041492;28;20440;-64
2022/01/26 13:51:40;;;;;;;10.43;7.77;;;18.50;38.60;;;;;;5046644;28;20641;-64
2022/01/26 13:54:31;;;;;;;8.43;6.60;;;18.40;38.50;;;;;;5044469;28;20739;-64
2022/01/26 13:59:47;;;;;;;8.70;6.70;;;18.40;38.50;;;;;;5045635;28;20590;-64
2022/01/26 14:02:13;;;;;;;7.57;6.50;;;18.40;38.40;;;;;;5026023;28;20455;-64
2022/01/26 14:04:39;;;;;;;7.57;6.77;;;18.40;38.50;;;;;;5041236;28;20434;-64
2022/01/26 14:07:06;;;;;;;7.70;6.80;;;18.40;38.50;;;;;;5040344;28;20218;-68
2022/01/26 14:09:31;;;;;;;7.43;6.57;;;18.50;38.50;;;;;;5042784;28;20749;-67
2022/01/26 14:11:59;;;;;;;7.20;6.50;;;18.40;38.50;;;;;;5042234;28;20451;-67
2022/01/26 14:14:32;;;;;;;8.60;6.97;;;18.40;38.50;;;;;;5045594;28;20218;-67
2022/01/26 14:17:00;;;;;;;7.10;6.40;;;18.50;38.60;;;;;;5039434;28;20459;-67
2022/01/26 14:19:39;;;;;;;8.77;7.17;;;18.40;38.50;;;;;;5045554;28;20447;-67
2022/01/26 14:27:07;;;;;;;7.03;6.23;;;18.50;38.40;;;;;;5037367;28;20482;-65
2022/01/26 14:29:52;;;;;;;8.50;6.10;;;18.50;38.40;;;;;;5042843;28;20463;-65
2022/01/26 14:54:15;;;;;;;15.23;7.33;;;18.40;38.00;;;;;;5041785;28;20952;-65
2022/01/26 15:29:57;;;;;;;7.03;6.20;;;18.40;38.40;;;;;;5040153;28;20467;-66
2022/01/26 15:34:08;;;;;;;10.40;6.07;;;18.40;38.50;;;;;;5052478;28;20447;-66
2022/01/26 15:42:27;;;;;;;6.80;6.20;;;18.40;38.50;;;;;;5033415;28;20452;-65
2022/01/26 15:50:20;;;;;;;8.77;7.33;;;18.40;38.60;;;;;;5045421;28;20447;-64
2022/01/26 15:53:14;;;;;;;7.50;6.77;;;18.30;38.50;;;;;;5043017;28;20414;-64
2022/01/26 15:58:29;;;;;;;7.50;6.73;;;18.30;38.50;;;;;;5020230;28;21036;-63
2022/01/26 16:20:12;;;;;;;7.40;6.80;;;18.30;38.40;;;;;;5042847;28;20449;-66
2022/01/26 18:16:56;;;;;;;6.43;5.83;;;18.60;38.00;;;;;;5044006;28;20456;-63
2022/01/26 18:49:13;;;;;;;5.70;5.20;;;18.60;38.00;;;;;;5043016;28;21004;-68
2022/01/26 18:51:42;;;;;;;5.57;5.17;;;18.50;37.90;;;;;;5039641;28;20445;-69
2022/01/26 18:54:09;;;;;;;6.47;5.70;;;18.60;38.00;;;;;;5039866;28;21162;-68
2022/01/26 18:56:36;;;;;;;5.00;4.63;;;18.60;38.00;;;;;;5045990;28;20447;-72
2022/01/26 18:59:03;;;;;;;5.37;4.97;;;18.50;37.90;;;;;;5048588;28;20558;-71
2022/01/26 19:01:29;;;;;;;5.73;5.13;;;18.50;37.90;;;;;;5038886;28;20451;-70
2022/01/26 19:03:54;;;;;;;5.63;5.23;;;18.60;38.00;;;;;;5041458;28;20788;-70
2022/01/26 19:06:20;;;;;;;5.50;5.00;;;18.60;38.00;;;;;;5042209;28;20231;-70
2022/01/26 19:08:46;;;;;;;6.03;5.37;;;18.60;38.00;;;;;;5040856;28;20682;-68
2022/01/26 19:11:12;;;;;;;6.40;4.93;;;18.60;38.00;;;;;;5041243;28;20255;-66
2022/01/26 19:13:41;;;;;;;5.60;4.83;;;18.60;38.00;;;;;;5046628;28;20238;-69
2022/01/26 19:16:20;;;;;;;7.23;5.63;;;18.60;38.00;;;;;;5044516;28;20859;-68
2022/01/26 19:26:26;;;;;;;5.03;4.63;;;18.60;38.00;;;;;;5041009;28;20534;-72
2022/01/26 19:28:59;;;;;;;7.10;5.00;;;18.50;37.90;;;;;;5041080;28;20422;-69